Latest Weather Observations for Omeo

IDV60801

Issued at 6:05 pm EST Tuesday 23 September 2014 (issued every 30 minutes, with the page automatically refreshed every 10 minutes)

About weather observations | Map of weather stations | Latest weather observations for VIC | Other Formats
Station Details ID: 083090 Name: OMEO Lat: -37.10 Lon: 147.60 Height: 689.8 m
Data from the previous 72 hours. | See also: Recent months at Omeo
Date/Time
EST
Temp
°C
App
Temp
°C
Dew
Point
Rel
Hum
%
Delta-T
°C
Wind Press
QNH
hPa
Press
MSL
hPa
Rain
since 9 am
mm
Dir
 
Spd
km/h
Gust
km/h
Spd
kts
Gust
kts
23/06:00pm 14.8 11.2 6.6 58 4.1 SE 15 26 8 14 1024.0 1024.2 0.0
23/05:30pm 16.8 13.7 7.4 54 4.9 SE 13 19 7 10 1024.3 1024.4 0.0
23/05:00pm 18.4 15.4 7.8 50 5.6 SSE 13 19 7 10 1024.0 1024.2 0.0
23/04:30pm 19.6 16.7 8.0 47 6.2 SE 13 22 7 12 1023.7 1023.9 0.0
23/04:00pm 20.1 17.1 7.8 45 6.5 SE 13 20 7 11 1023.8 1024.0 0.0
23/03:30pm 21.2 18.8 8.8 45 6.8 SE 11 20 6 11 1024.3 1024.4 0.0
23/03:00pm 21.2 19.7 3.0 30 8.9 CALM 0 7 0 4 1024.5 1024.6 0.0
23/02:30pm 21.2 18.1 -0.1 24 9.8 WNW 6 9 3 5 1024.6 1024.7 0.0
23/02:00pm 20.1 16.9 0.5 27 9.0 N 7 13 4 7 1024.9 1025.1 0.0
23/01:30pm 20.2 17.9 4.7 36 7.8 NW 6 11 3 6 1025.5 1025.7 0.0
23/01:00pm 19.7 17.6 5.7 40 7.1 NW 6 9 3 5 1025.9 1026.0 0.0
23/12:30pm 18.7 15.2 3.7 37 7.3 N 11 19 6 10 1026.4 1026.6 0.0
23/12:00pm 18.3 15.8 6.5 46 6.0 N 9 17 5 9 1027.0 1027.2 0.0
23/11:30am 17.9 15.8 8.2 53 5.1 N 9 17 5 9 1027.6 1027.8 0.0
23/11:00am 16.6 13.9 7.3 54 4.8 N 11 17 6 9 1028.1 1028.3 0.0
23/10:30am 15.2 12.0 7.0 58 4.2 N 13 17 7 9 1028.6 1028.9 0.0
23/10:00am 14.2 12.0 7.7 65 3.3 NNW 9 13 5 7 1029.2 1029.4 0.0
23/09:30am 11.5 8.8 7.2 75 2.1 N 11 15 6 8 1029.4 1029.6 0.0
23/09:00am 9.4 6.4 6.1 80 1.6 N 11 17 6 9 1029.6 1029.8 0.0
23/08:30am 7.0 4.2 5.0 87 0.9 NNW 9 11 5 6 1030.1 1030.4 0.0
23/08:00am 5.4 3.5 4.7 95 0.3 N 4 7 2 4 1030.1 1030.4 0.0
23/07:30am 3.5 0.9 3.2 98 0.1 NNW 6 7 3 4 1030.0 1030.3 0.0
23/07:00am 1.2 -1.0 0.9 98 0.1 WNW 2 6 1 3 1029.9 1030.2 0.0
23/06:30am 0.1 -1.9 -0.3 97 0.2 CALM 0 6 0 3 1029.7 1030.0 0.0
23/06:00am 1.0 -2.2 0.6 97 0.2 W 7 9 4 5 1029.5 1029.7 0.0
23/05:30am 0.4 -2.7 0.0 97 0.2 NW 6 9 3 5 1029.4 1029.6 0.0
23/05:00am 1.2 -2.0 0.8 97 0.2 WNW 7 9 4 5 1029.2 1029.4 0.0
23/04:30am 2.1 -0.9 1.7 97 0.2 NNW 7 9 4 5 1029.0 1029.2 0.0
23/04:00am 2.3 -0.5 1.9 97 0.2 NW 6 9 3 5 1028.8 1029.1 0.0
23/03:30am 2.2 -0.8 1.8 97 0.2 NNW 7 11 4 6 1028.6 1028.9 0.0
23/03:00am 2.4 -0.6 1.8 96 0.2 N 7 11 4 6 1028.6 1028.9 0.0
23/02:30am 2.8 0.0 2.2 96 0.2 N 6 7 3 4 1028.7 1029.0 0.0
23/02:00am 2.2 0.4 1.5 95 0.3 CALM 0 0 0 0 1029.1 1029.3 0.0
23/01:30am 2.9 1.3 2.2 95 0.3 CALM 0 0 0 0 1029.4 1029.6 0.0
23/01:00am 3.9 2.4 3.2 95 0.3 CALM 0 0 0 0 1029.5 1029.7 0.0
23/12:30am 3.6 2.0 2.7 94 0.4 CALM 0 0 0 0 1029.6 1029.8 0.0
23/12:00am 3.8 2.3 2.8 93 0.4 CALM 0 0 0 0 1029.4 1029.6 0.0
 
Date/Time
EST
Temp
°C
App
Temp
°C
Dew
Point
Rel
Hum
%
Delta-T
°C
Wind Press
QNH
hPa
Press
MSL
hPa
Rain
since 9 am
mm
Dir
 
Spd
km/h
Gust
km/h
Spd
kts
Gust
kts
22/11:30pm 4.8 3.4 3.8 93 0.4 CALM 0 0 0 0 1029.3 1029.5 0.0
22/11:00pm 5.2 3.9 3.9 91 0.6 CALM 0 0 0 0 1029.4 1029.6 0.0
22/10:30pm 5.0 3.6 3.3 89 0.7 CALM 0 0 0 0 1029.4 1029.6 0.0
22/10:00pm 5.9 3.5 4.1 88 0.8 SSE 6 7 3 4 1029.4 1029.6 0.0
22/09:30pm 6.8 5.5 4.3 84 1.1 CALM 0 0 0 0 1029.5 1029.7 0.0
22/09:00pm 7.9 5.5 5.2 83 1.2 SSE 7 9 4 5 1029.4 1029.6 0.0
22/08:30pm 8.7 7.2 5.1 78 1.7 SSW 2 7 1 4 1029.3 1029.5 0.0
22/08:00pm 9.7 7.3 4.5 70 2.4 S 6 13 3 7 1029.2 1029.4 0.0
22/07:30pm 11.8 9.1 5.7 66 3.0 SSW 9 11 5 6 1029.0 1029.2 0.0
22/07:00pm 11.8 10.4 5.4 65 3.1 SSW 2 7 1 4 1028.3 1028.5 0.0
22/06:30pm 12.5 9.4 5.7 63 3.3 SSE 11 17 6 9 1028.1 1028.3 0.0
22/06:00pm 14.3 11.6 5.7 56 4.2 SE 9 13 5 7 1027.6 1027.8 0.0
22/05:30pm 17.1 14.5 4.4 43 6.2 NNW 7 9 4 5 1027.2 1027.5 0.0
22/05:00pm 18.1 15.3 5.3 43 6.4 NNW 9 17 5 9 1027.0 1027.2 0.0
22/04:30pm 18.6 14.7 3.6 37 7.3 NNW 13 20 7 11 1026.9 1027.1 0.0
22/04:00pm 19.1 16.2 6.6 44 6.4 N 11 17 6 9 1026.9 1027.1 0.0
22/03:30pm 19.0 15.8 5.1 40 7.0 N 11 17 6 9 1027.0 1027.2 0.0
22/03:00pm 18.8 15.4 4.2 38 7.2 N 11 19 6 10 1027.2 1027.5 0.0
22/02:30pm 19.1 16.4 5.6 41 6.9 NE 9 19 5 10 1027.5 1027.7 0.0
22/02:00pm 18.8 15.1 4.2 38 7.2 NE 13 20 7 11 1027.6 1027.8 0.0
22/01:30pm 18.7 15.9 5.2 41 6.8 NE 9 17 5 9 1027.7 1027.9 0.0
22/01:00pm 18.2 15.3 6.7 47 5.9 N 11 20 6 11 1028.1 1028.3 0.0
22/12:30pm 17.2 14.1 7.3 52 5.1 N 13 19 7 10 1028.4 1028.7 0.0
22/12:00pm 16.0 12.7 8.2 60 4.1 N 15 22 8 12 1029.0 1029.2 0.0
22/11:30am 15.0 12.0 7.8 62 3.7 N 13 20 7 11 1029.6 1029.8 0.0
22/11:00am 14.2 11.2 7.9 66 3.2 N 13 17 7 9 1029.9 1030.2 0.0
22/10:30am 12.1 8.8 6.2 67 2.9 N 13 19 7 10 1030.3 1030.6 0.0
22/10:00am 10.1 7.5 5.9 75 2.0 N 9 13 5 7 1030.5 1030.7 0.0
22/09:30am 8.0 4.8 5.3 83 1.3 N 11 19 6 10 1031.0 1031.3 0.0
22/09:00am 5.9 2.0 5.2 95 0.3 NNW 15 20 8 11 1031.3 1031.6 0.0
22/08:30am 4.4 0.3 4.1 98 0.1 N 15 22 8 12 1031.4 1031.7 0.0
22/08:00am 3.1 -1.2 3.0 99 0.0 NNW 15 20 8 11 1031.3 1031.6 0.0
22/07:30am 1.8 -2.8 1.7 99 0.0 NNW 15 19 8 10 1031.3 1031.6 0.0
22/07:00am 1.1 -2.8 1.0 99 0.0 NNW 11 17 6 9 1031.2 1031.5 0.0
22/06:30am -0.2 -2.3 -0.5 98 0.1 CALM 0 0 0 0 1030.9 1031.2 0.0
22/06:00am -0.6 -2.7 -0.9 98 0.1 CALM 0 0 0 0 1030.6 1030.8 0.0
22/05:30am -0.1 -3.3 -0.4 98 0.1 W 6 7 3 4 1030.2 1030.5 0.0
22/05:00am 0.1 -3.1 -0.2 98 0.1 WNW 6 9 3 5 1030.0 1030.3 0.0
22/04:30am 0.0 -2.8 -0.4 97 0.2 W 4 7 2 4 1029.8 1030.1 0.0
22/04:00am 0.2 -2.6 -0.2 97 0.1 WNW 4 9 2 5 1029.6 1029.8 0.0
22/03:30am 0.5 -2.6 0.1 97 0.2 W 6 9 3 5 1029.4 1029.6 0.0
22/03:00am 0.4 -2.7 0.0 97 0.1 WNW 6 7 3 4 1029.5 1029.7 0.0
22/02:30am 0.4 -1.6 -0.2 96 0.2 CALM 0 0 0 0 1029.8 1030.1 0.0
22/02:00am 0.8 -1.2 0.2 96 0.2 CALM 0 0 0 0 1030.1 1030.4 0.0
22/01:30am 1.0 -0.9 0.4 96 0.2 CALM 0 0 0 0 1030.2 1030.5 0.0
22/01:00am 0.9 -1.1 0.2 95 0.3 CALM 0 0 0 0 1030.3 1030.6 0.0
22/12:30am 1.9 0.1 1.2 95 0.3 CALM 0 0 0 0 1030.6 1030.8 0.0
22/12:00am 2.0 -0.5 1.3 95 0.3 SSE 4 7 2 4 1030.3 1030.6 0.0
 
Date/Time
EST
Temp
°C
App
Temp
°C
Dew
Point
Rel
Hum
%
Delta-T
°C
Wind Press
QNH
hPa
Press
MSL
hPa
Rain
since 9 am
mm
Dir
 
Spd
km/h
Gust
km/h
Spd
kts
Gust
kts
21/11:30pm 2.3 0.2 1.4 94 0.4 S 2 6 1 3 1030.1 1030.4 0.0
21/11:00pm 3.6 1.3 2.6 93 0.4 SSE 4 7 2 4 1030.2 1030.5 0.0
21/10:30pm 4.3 2.8 3.1 92 0.5 CALM 0 6 0 3 1030.1 1030.4 0.0
21/10:00pm 5.4 3.3 4.1 91 0.6 SE 4 7 2 4 1030.2 1030.5 0.0
21/09:30pm 5.3 3.5 3.6 89 0.7 SSE 2 7 1 4 1030.3 1030.6 0.0
21/09:00pm 6.3 3.4 4.5 88 0.8 SSE 9 13 5 7 1030.5 1030.7 0.0
21/08:30pm 7.3 4.5 5.1 86 1.0 SSE 9 15 5 8 1030.5 1030.7 0.0
21/08:00pm 7.8 4.3 5.4 85 1.1 S 13 22 7 12 1030.1 1030.4 0.0
21/07:30pm 7.9 4.4 5.4 84 1.2 S 13 20 7 11 1029.9 1030.2 0.0
21/07:00pm 8.4 5.3 5.5 82 1.4 S 11 19 6 10 1029.5 1029.7 0.0
21/06:30pm 9.1 6.4 5.5 78 1.7 SSE 9 17 5 9 1029.2 1029.4 0.0
21/06:00pm 9.8 6.2 4.8 71 2.3 SE 13 20 7 11 1028.7 1029.0 0.0
21/05:30pm 11.5 7.6 5.2 65 3.0 SSE 15 20 8 11 1028.4 1028.7 0.0
21/05:00pm 13.2 10.2 5.9 61 3.6 SE 11 17 6 9 1028.3 1028.5 0.0
21/04:30pm 13.8 10.6 4.9 55 4.3 SE 11 17 6 9 1028.2 1028.4 0.0
21/04:00pm 14.6 11.3 4.6 51 4.8 SE 11 17 6 9 1028.2 1028.4 0.0
21/03:30pm 14.2 10.4 5.6 56 4.2 SE 15 24 8 13 1028.2 1028.4 0.0
21/03:00pm 15.1 10.9 5.9 54 4.6 SE 17 24 9 13 1028.1 1028.3 0.0
21/02:30pm 14.6 10.4 1.8 42 5.8 SE 13 20 7 11 1028.1 1028.3 0.0
21/02:00pm 15.3 11.6 2.1 41 6.0 SE 11 15 6 8 1028.2 1028.4 0.0
21/01:30pm 15.1 12.2 4.8 50 5.0 ESE 9 15 5 8 1028.5 1028.8 0.0
21/01:00pm 14.5 12.0 5.0 53 4.6 E 7 13 4 7 1028.7 1029.0 0.0
21/12:30pm 14.2 12.1 3.9 50 4.9 N 4 9 2 5 1029.1 1029.3 0.0
21/12:00pm 13.7 10.9 3.2 49 4.9 E 7 9 4 5 1029.4 1029.6 0.0
21/11:30am 12.0 8.6 1.9 50 4.5 N 9 13 5 7 1029.8 1030.1 0.0
21/11:00am 11.7 9.1 3.2 56 3.9 N 6 15 3 8 1030.1 1030.4 0.0
21/10:30am 10.5 7.8 3.8 63 3.1 NNE 7 13 4 7 1030.5 1030.7 0.0
21/10:00am 9.1 6.3 2.9 65 2.7 N 7 15 4 8 1030.8 1031.0 0.0
21/09:30am 9.0 6.3 2.6 64 2.8 N 6 9 3 5 1030.8 1031.0 0.0
21/09:00am 9.1 6.3 3.1 66 2.7 NE 7 11 4 6 1031.0 1031.3 0.0
21/08:30am 7.6 4.8 3.1 73 2.0 NNE 7 13 4 7 1030.7 1030.9 0.0
21/08:00am 6.8 4.8 4.5 85 1.0 N 4 9 2 5 1030.6 1030.8 0.0
21/07:30am 4.8 2.5 3.0 88 0.8 N 4 7 2 4 1030.6 1030.8 0.0
21/07:00am 4.1 1.7 2.1 87 0.8 NNW 4 6 2 3 1030.3 1030.6 0.0
21/06:30am 3.9 1.1 1.9 87 0.8 SW 6 9 3 5 1030.2 1030.5 0.0
21/06:00am 3.7 0.9 2.1 89 0.7 SE 6 9 3 5 1029.8 1030.1 0.0
21/05:30am 3.5 0.5 2.2 91 0.5 SSW 7 13 4 7 1029.7 1030.0 0.0
21/05:00am 3.4 0.1 2.2 92 0.5 SSW 9 17 5 9 1029.2 1029.4 0.0
21/04:30am 4.0 1.8 3.1 94 0.4 S 4 7 2 4 1028.4 1028.7 0.0
21/04:00am 4.2 1.7 3.6 96 0.3 SSW 6 9 3 5 1028.2 1028.4 0.0
21/03:30am 3.6 2.1 3.0 96 0.3 CALM 0 0 0 0 1028.1 1028.3 0.0
21/03:00am 3.6 2.1 3.0 96 0.3 CALM 0 0 0 0 1028.0 1028.2 0.0
21/02:30am 3.1 0.2 2.4 95 0.3 S 7 9 4 5 1028.3 1028.5 0.0
21/02:00am 3.9 2.1 3.3 96 0.3 SW 2 7 1 4 1028.3 1028.5 0.0
21/01:30am 3.8 2.3 3.1 95 0.3 CALM 0 6 0 3 1028.4 1028.7 0.0
21/01:00am 4.9 3.6 4.2 95 0.3 CALM 0 2 0 1 1028.7 1029.0 0.0
21/12:30am 5.1 2.7 4.2 94 0.4 SE 6 7 3 4 1029.0 1029.2 0.0
21/12:00am 5.4 3.4 4.5 94 0.4 S 4 7 2 4 1029.0 1029.2 0.0
 
Date/Time
EST
Temp
°C
App
Temp
°C
Dew
Point
Rel
Hum
%
Delta-T
°C
Wind Press
QNH
hPa
Press
MSL
hPa
Rain
since 9 am
mm
Dir
 
Spd
km/h
Gust
km/h
Spd
kts
Gust
kts
20/11:30pm 6.3 5.2 5.3 93 0.5 CALM 0 0 0 0 1028.8 1029.1 0.0
20/11:00pm 6.8 4.7 5.7 93 0.5 SE 6 7 3 4 1029.1 1029.3 0.0
20/10:30pm 7.1 4.9 6.0 93 0.5 SSE 7 11 4 6 1029.3 1029.5 0.0
20/10:00pm 7.3 4.7 6.2 93 0.5 SSE 9 13 5 7 1029.2 1029.4 0.0
20/09:30pm 7.3 5.1 6.1 92 0.6 SSW 7 11 4 6 1029.1 1029.3 0.0
20/09:00pm 7.4 4.8 6.0 91 0.7 S 9 13 5 7 1028.8 1029.1 0.0
20/08:30pm 7.0 4.7 5.5 90 0.7 SSW 7 11 4 6 1028.5 1028.8 0.0
20/08:00pm 6.5 3.9 4.3 86 1.0 S 7 11 4 6 1028.4 1028.7 0.0
20/07:30pm 6.9 3.2 4.7 86 1.0 S 13 17 7 9 1028.0 1028.2 0.0
20/07:00pm 6.8 3.4 2.1 72 2.0 S 9 13 5 7 1027.5 1027.7 0.0
20/06:30pm 7.7 4.0 2.6 70 2.2 SSW 11 13 6 7 1027.0 1027.2 0.0

Other Formats:

Comma delimited format used in spreadsheet applications
http://www.bom.gov.au/fwo/IDV60801/IDV60801.94908.axf

JavaScript Object Notation format (JSON) in row-major order
http://www.bom.gov.au/fwo/IDV60801/IDV60801.94908.json